Terminal Aerodrome Forecast
Issued by NWS

Home | Current Version | Previous Version | Text Only | Print | Product List | Glossary On
Versions: 1 2 3 4 5 6 7 8 9 10 11 12 13 14
000
FTUS44 KLZK 211700
TAFBPK
TAF
KBPK 211730Z 2118/2218 11007KT P6SM VCSH OVC017
     FM212130 14009KT P6SM OVC015
     FM220200 17010KT P6SM OVC015
     FM221400 16010KT P6SM OVC015=

USA.gov is the U.S. government's official web portal to all federal, state and local government web resources and services.